createdAt,value
2023-05-09T00:01:18.390Z,98812.84
2023-05-09T00:03:44.865Z,98807.63
2023-05-09T00:06:11.610Z,98804.97
2023-05-09T00:08:38.091Z,98794.41
2023-05-09T00:11:04.734Z,98808.50
2023-05-09T00:13:31.109Z,98802.09
2023-05-09T00:15:58.444Z,98793.41
2023-05-09T00:18:24.957Z,98785.84
2023-05-09T00:20:51.401Z,98792.75
2023-05-09T00:23:17.937Z,98791.22
2023-05-09T00:25:44.493Z,98780.81
2023-05-09T00:28:11.192Z,98783.31
2023-05-09T00:30:37.781Z,98784.81
2023-05-09T00:33:04.492Z,98782.97
2023-05-09T00:35:32.259Z,98781.66
2023-05-09T00:37:59.440Z,98776.28
2023-05-09T00:40:26.034Z,98774.13
2023-05-09T00:42:52.559Z,98765.09
2023-05-09T00:45:19.096Z,98762.91
2023-05-09T00:47:45.632Z,98761.41
2023-05-09T00:50:12.311Z,98761.25
2023-05-09T00:52:39.157Z,98766.22
2023-05-09T00:55:08.263Z,98765.22
2023-05-09T00:57:35.111Z,98759.66
2023-05-09T01:00:01.846Z,98765.19
2023-05-09T01:02:28.666Z,98754.59
2023-05-09T01:04:56.005Z,98755.81
2023-05-09T01:07:43.614Z,98747.59
2023-05-09T01:10:26.577Z,98750.66
2023-05-09T01:13:00.222Z,98748.09
2023-05-09T01:15:36.221Z,98738.69
2023-05-09T01:18:28.310Z,98747.91
2023-05-09T01:21:01.850Z,98742.88
2023-05-09T01:23:45.351Z,98742.72
2023-05-09T01:26:32.650Z,98742.84
2023-05-09T01:29:29.220Z,98734.75
2023-05-09T01:31:58.078Z,98738.13
2023-05-09T01:34:27.263Z,98739.47
2023-05-09T01:36:58.458Z,98737.66
2023-05-09T01:39:26.954Z,98737.66
2023-05-09T01:41:56.664Z,98731.84
2023-05-09T01:44:25.517Z,98731.34
2023-05-09T01:46:54.674Z,98729.13
2023-05-09T01:49:22.709Z,98717.59
2023-05-09T01:51:50.694Z,98720.75
2023-05-09T01:54:18.499Z,98720.56
2023-05-09T01:56:46.008Z,98725.97
2023-05-09T01:59:16.209Z,98723.28
2023-05-09T02:01:44.634Z,98718.06
2023-05-09T02:04:12.654Z,98720.28
2023-05-09T02:06:40.381Z,98716.03
2023-05-09T02:09:07.142Z,98717.88
2023-05-09T02:11:33.592Z,98706.72
2023-05-09T02:14:00.195Z,98712.44
2023-05-09T02:16:27.739Z,98710.22
2023-05-09T02:18:54.240Z,98700.69
2023-05-09T02:21:20.755Z,98706.88
2023-05-09T02:23:47.644Z,98714.59
2023-05-09T02:26:14.749Z,98719.31
2023-05-09T02:28:44.006Z,98718.66
2023-05-09T02:31:13.955Z,98709.28
2023-05-09T02:33:42.874Z,98705.66
2023-05-09T02:36:10.232Z,98699.59
2023-05-09T02:38:37.005Z,98699.09
2023-05-09T02:41:03.399Z,98691.91
2023-05-09T02:43:29.786Z,98697.25
2023-05-09T02:45:56.336Z,98693.56
2023-05-09T02:48:23.231Z,98686.03
2023-05-09T02:50:49.720Z,98686.53
2023-05-09T02:53:16.230Z,98683.19
2023-05-09T02:55:42.678Z,98685.88
2023-05-09T02:58:14.087Z,98676.84
2023-05-09T03:00:41.825Z,98680.19
2023-05-09T03:03:08.513Z,98684.38
2023-05-09T03:05:35.267Z,98684.03
2023-05-09T03:08:01.752Z,98683.69
2023-05-09T03:10:28.298Z,98677.81
2023-05-09T03:12:54.859Z,98690.19
2023-05-09T03:15:21.553Z,98692.03
2023-05-09T03:17:48.052Z,98691.19
2023-05-09T03:20:15.702Z,98683.19
2023-05-09T03:22:42.334Z,98678.34
2023-05-09T03:25:09.479Z,98671.97
2023-05-09T03:27:35.966Z,98676.59
2023-05-09T03:30:03.846Z,98667.91
2023-05-09T03:32:30.505Z,98666.06
2023-05-09T03:34:57.300Z,98672.59
2023-05-09T03:37:25.476Z,98669.22
2023-05-09T03:39:53.210Z,98668.22
2023-05-09T03:42:19.642Z,98669.06
2023-05-09T03:44:46.366Z,98662.84
2023-05-09T03:47:12.761Z,98670.56
2023-05-09T03:49:39.227Z,98667.38
2023-05-09T03:52:05.794Z,98663.69
2023-05-09T03:54:32.188Z,98659.69
2023-05-09T03:56:58.624Z,98665.69
2023-05-09T03:59:25.059Z,98652.63
2023-05-09T04:01:51.582Z,98649.63
2023-05-09T04:04:18.126Z,98651.44
2023-05-09T04:06:44.602Z,98648.59
2023-05-09T04:09:11.218Z,98653.44
2023-05-09T04:11:37.644Z,98640.91
2023-05-09T04:14:07.112Z,98646.97
2023-05-09T04:16:33.941Z,98653.69
2023-05-09T04:19:00.500Z,98653.00
2023-05-09T04:21:26.883Z,98651.00
2023-05-09T04:23:53.419Z,98643.31
2023-05-09T04:26:22.562Z,98635.59
2023-05-09T04:28:49.007Z,98645.47
2023-05-09T04:31:15.631Z,98644.97
2023-05-09T04:33:42.173Z,98641.66
2023-05-09T04:36:09.016Z,98645.00
2023-05-09T04:38:35.463Z,98640.66
2023-05-09T04:41:02.009Z,98642.53
2023-05-09T04:43:28.509Z,98642.00
2023-05-09T04:45:54.928Z,98642.00
2023-05-09T04:48:21.420Z,98642.81
2023-05-09T04:50:48.613Z,98631.94
2023-05-09T04:53:15.172Z,98635.78
2023-05-09T04:55:41.613Z,98625.22
2023-05-09T04:58:09.394Z,98623.13
2023-05-09T05:00:36.166Z,98613.34
2023-05-09T05:03:02.947Z,98607.41
2023-05-09T05:05:29.639Z,98611.56
2023-05-09T05:07:56.532Z,98598.94
2023-05-09T05:10:23.083Z,98600.97
2023-05-09T05:12:49.785Z,98595.31
2023-05-09T05:15:17.645Z,98597.72
2023-05-09T05:17:44.102Z,98592.97
2023-05-09T05:20:10.930Z,98589.72
2023-05-09T05:22:37.448Z,98592.03
2023-05-09T05:25:05.050Z,98585.22
2023-05-09T05:27:31.764Z,98583.03
2023-05-09T05:30:04.662Z,98584.78
2023-05-09T05:32:31.260Z,98576.41
2023-05-09T05:34:57.847Z,98596.13
2023-05-09T05:37:24.405Z,98586.38
2023-05-09T05:39:51.710Z,98592.03
2023-05-09T05:42:18.196Z,98590.09
2023-05-09T05:44:44.860Z,98587.09
2023-05-09T05:47:11.600Z,98582.78
2023-05-09T05:49:38.575Z,98584.25
2023-05-09T05:52:05.215Z,98577.84
2023-05-09T05:54:31.734Z,98581.41
2023-05-09T05:56:58.347Z,98583.06
2023-05-09T05:59:33.581Z,98579.06
2023-05-09T06:02:00.265Z,98588.75
2023-05-09T06:04:28.125Z,98580.53
2023-05-09T06:06:54.653Z,98590.97
2023-05-09T06:09:21.178Z,98582.88
2023-05-09T06:11:47.698Z,98581.97
2023-05-09T06:14:14.174Z,98581.69
2023-05-09T06:16:41.196Z,98585.94
2023-05-09T06:19:07.973Z,98594.72
2023-05-09T06:21:34.490Z,98582.41
2023-05-09T06:24:08.362Z,98576.66
2023-05-09T06:26:37.065Z,98573.72
2023-05-09T06:29:06.009Z,98577.50
2023-05-09T06:31:33.109Z,98574.66
2023-05-09T06:33:59.651Z,98555.66
2023-05-09T06:36:26.219Z,98560.97
2023-05-09T06:38:52.670Z,98557.06
2023-05-09T06:41:19.236Z,98552.22
2023-05-09T06:43:45.725Z,98548.44
2023-05-09T06:46:12.307Z,98552.59
2023-05-09T06:48:41.228Z,98553.19
2023-05-09T06:51:11.497Z,98544.44
2023-05-09T06:53:38.438Z,98541.31
2023-05-09T06:56:05.275Z,98549.41
2023-05-09T06:58:31.888Z,98538.34
2023-05-09T07:00:58.835Z,98542.72
2023-05-09T07:03:26.098Z,98552.63
2023-05-09T07:05:52.706Z,98545.28
2023-05-09T07:08:19.251Z,98537.72
2023-05-09T07:10:45.770Z,98536.66
2023-05-09T07:13:12.294Z,98535.00
2023-05-09T07:15:42.645Z,98527.09
2023-05-09T07:18:09.843Z,98521.91
2023-05-09T07:20:36.565Z,98527.09
2023-05-09T07:23:04.173Z,98521.00
2023-05-09T07:25:30.794Z,98518.59
2023-05-09T07:27:57.845Z,98511.53
2023-05-09T07:30:25.266Z,98507.28
2023-05-09T07:32:52.254Z,98506.13
2023-05-09T07:35:19.882Z,98503.41
2023-05-09T07:37:46.431Z,98506.78
2023-05-09T07:40:13.826Z,98508.44
2023-05-09T07:42:40.782Z,98504.59
2023-05-09T07:45:07.853Z,98503.88
2023-05-09T07:47:34.534Z,98507.56
2023-05-09T07:50:04.228Z,98496.25
2023-05-09T07:52:30.995Z,98494.50
2023-05-09T07:54:57.652Z,98490.44
2023-05-09T07:57:24.224Z,98474.47
2023-05-09T07:59:50.796Z,98479.78
2023-05-09T08:02:17.449Z,98481.72
2023-05-09T08:04:44.037Z,98476.72
2023-05-09T08:07:11.792Z,98482.66
2023-05-09T08:09:38.383Z,98458.03
2023-05-09T08:12:05.317Z,98471.59
2023-05-09T08:14:34.498Z,98478.84
2023-05-09T08:17:01.143Z,98468.22
2023-05-09T08:19:27.679Z,98458.09
2023-05-09T08:21:54.523Z,98455.41
2023-05-09T08:24:21.318Z,98445.69
2023-05-09T08:26:47.763Z,98452.50
2023-05-09T08:29:14.672Z,98447.50
2023-05-09T08:31:41.210Z,98445.38
2023-05-09T08:34:07.859Z,98439.56
2023-05-09T08:36:34.440Z,98440.81
2023-05-09T08:39:01.006Z,98431.50
2023-05-09T08:41:30.957Z,98434.53
2023-05-09T08:43:57.650Z,98440.41
2023-05-09T08:46:44.207Z,98423.97
2023-05-09T08:49:11.054Z,98436.00
2023-05-09T08:51:38.290Z,98423.84
2023-05-09T08:54:05.515Z,98417.84
2023-05-09T08:56:34.187Z,98419.69
2023-05-09T08:59:00.932Z,98424.06
2023-05-09T09:01:27.916Z,98421.84
2023-05-09T09:03:54.590Z,98421.94
2023-05-09T09:06:23.345Z,98417.00
2023-05-09T09:08:50.974Z,98411.34
2023-05-09T09:11:18.747Z,98415.81
2023-05-09T09:13:46.850Z,98410.34
2023-05-09T09:16:21.117Z,98406.56
2023-05-09T09:18:51.650Z,98405.72
2023-05-09T09:21:19.756Z,98396.84
2023-05-09T09:23:47.585Z,98399.75
2023-05-09T09:26:14.436Z,98393.34
2023-05-09T09:28:41.661Z,98395.97
2023-05-09T09:31:28.367Z,98392.38
2023-05-09T09:34:02.265Z,98391.25
2023-05-09T09:36:36.845Z,98382.94
2023-05-09T09:39:05.096Z,98391.28
2023-05-09T09:41:33.308Z,98392.06
2023-05-09T09:44:07.373Z,98389.59
2023-05-09T09:46:55.194Z,98394.38
2023-05-09T09:49:22.465Z,98384.84
2023-05-09T09:51:54.345Z,98377.22
2023-05-09T09:54:21.455Z,98380.09
2023-05-09T09:56:54.457Z,98370.63
2023-05-09T09:59:23.585Z,98369.56
2023-05-09T10:01:56.452Z,98372.44
2023-05-09T10:04:23.708Z,98358.84
2023-05-09T10:06:57.550Z,98359.81
2023-05-09T10:09:24.754Z,98355.03
2023-05-09T10:11:52.442Z,98355.81
2023-05-09T10:14:21.469Z,98344.00
2023-05-09T10:16:49.723Z,98339.41
2023-05-09T10:19:23.410Z,98339.59
2023-05-09T10:21:52.863Z,98337.34
2023-05-09T10:24:28.369Z,98322.06
2023-05-09T10:27:06.087Z,98325.09
2023-05-09T10:29:38.857Z,98324.03
2023-05-09T10:32:15.499Z,98324.88
2023-05-09T10:34:47.798Z,98317.81
2023-05-09T10:37:16.817Z,98303.50
2023-05-09T10:39:44.271Z,98305.56
2023-05-09T10:42:12.404Z,98302.25
2023-05-09T10:44:39.056Z,98304.13
2023-05-09T10:47:06.637Z,98297.88
2023-05-09T10:49:35.469Z,98292.91
2023-05-09T10:52:03.807Z,98286.47
2023-05-09T10:54:34.305Z,98289.19
2023-05-09T10:57:01.039Z,98283.16
2023-05-09T10:59:46.426Z,98282.31
2023-05-09T11:02:14.619Z,98281.47
2023-05-09T11:04:41.222Z,98278.06
2023-05-09T11:07:26.794Z,98283.97
2023-05-09T11:10:07.311Z,98278.34
2023-05-09T11:12:34.157Z,98269.91
2023-05-09T11:15:08.230Z,98266.38
2023-05-09T11:17:38.786Z,98268.56
2023-05-09T11:20:06.432Z,98258.66
2023-05-09T11:22:44.310Z,98257.03
2023-05-09T11:25:13.152Z,98256.75
2023-05-09T11:27:47.845Z,98258.84
2023-05-09T11:30:18.973Z,98240.31
2023-05-09T11:32:55.270Z,98234.78
2023-05-09T11:35:23.601Z,98235.81
2023-05-09T11:38:00.431Z,98237.63
2023-05-09T11:40:28.267Z,98229.78
2023-05-09T11:42:58.333Z,98221.91
2023-05-09T11:45:30.454Z,98218.16
2023-05-09T11:47:57.679Z,98221.28
2023-05-09T11:50:24.644Z,98216.66
2023-05-09T11:52:51.336Z,98214.75
2023-05-09T11:55:22.655Z,98216.44
2023-05-09T11:57:51.988Z,98217.69
2023-05-09T12:00:20.992Z,98206.88
2023-05-09T12:02:48.130Z,98200.47
2023-05-09T12:05:16.858Z,98199.03
2023-05-09T12:07:44.580Z,98197.81
2023-05-09T12:10:19.891Z,98191.78
2023-05-09T12:12:50.917Z,98196.59
2023-05-09T12:15:18.591Z,98189.75
2023-05-09T12:17:47.240Z,98196.56
2023-05-09T12:20:14.866Z,98191.16
2023-05-09T12:22:44.489Z,98199.34
2023-05-09T12:25:12.092Z,98193.91
2023-05-09T12:27:40.359Z,98190.28
2023-05-09T12:30:10.151Z,98187.50
2023-05-09T12:32:39.683Z,98189.28
2023-05-09T12:35:10.562Z,98185.22
2023-05-09T12:37:38.143Z,98175.59
2023-05-09T12:40:09.347Z,98168.19
2023-05-09T12:42:36.092Z,98173.56
2023-05-09T12:45:03.596Z,98161.47
2023-05-09T12:47:31.748Z,98160.47
2023-05-09T12:49:59.446Z,98149.06
2023-05-09T12:52:26.115Z,98139.25
2023-05-09T12:54:53.888Z,98144.91
2023-05-09T12:57:23.179Z,98134.81
2023-05-09T12:59:50.146Z,98136.84
2023-05-09T13:02:16.865Z,98139.34
2023-05-09T13:04:45.996Z,98128.13
2023-05-09T13:07:12.479Z,98110.72
2023-05-09T13:09:55.603Z,98113.13
2023-05-09T13:12:22.172Z,98104.88
2023-05-09T13:14:48.892Z,98111.53
2023-05-09T13:17:18.438Z,98115.81
2023-05-09T13:19:47.785Z,98096.94
2023-05-09T13:22:14.540Z,98099.09
2023-05-09T13:24:44.136Z,98093.91
2023-05-09T13:27:12.204Z,98085.53
2023-05-09T13:29:39.063Z,98085.00
2023-05-09T13:32:05.886Z,98076.66
2023-05-09T13:34:32.396Z,98071.09
2023-05-09T13:36:59.131Z,98065.69
2023-05-09T13:39:25.677Z,98052.84
2023-05-09T13:41:52.946Z,98062.91
2023-05-09T13:44:19.566Z,98056.34
2023-05-09T13:46:47.064Z,98054.22
2023-05-09T13:49:13.679Z,98045.66
2023-05-09T13:51:40.282Z,98057.97
2023-05-09T13:54:12.425Z,98046.50
2023-05-09T13:56:39.593Z,98047.41
2023-05-09T13:59:07.317Z,98035.19
2023-05-09T14:01:34.129Z,98034.72
2023-05-09T14:04:01.164Z,98035.19
2023-05-09T14:06:29.060Z,98036.59
2023-05-09T14:08:56.549Z,98037.88
2023-05-09T14:11:23.413Z,98026.25
2023-05-09T14:13:49.890Z,98024.75
2023-05-09T14:16:16.508Z,98019.16
2023-05-09T14:18:42.962Z,98019.09
2023-05-09T14:21:09.419Z,98006.25
2023-05-09T14:23:36.067Z,98007.75
2023-05-09T14:26:02.613Z,98001.06
2023-05-09T14:28:29.066Z,98007.94
2023-05-09T14:30:55.846Z,97995.75
2023-05-09T14:33:22.257Z,97990.94
2023-05-09T14:35:48.676Z,97976.03
2023-05-09T14:38:15.828Z,97979.91
2023-05-09T14:40:42.324Z,97973.81
2023-05-09T14:43:09.581Z,97976.28
2023-05-09T14:45:36.186Z,97966.41
2023-05-09T14:48:03.609Z,97967.47
2023-05-09T14:50:30.254Z,97953.59
2023-05-09T14:52:57.302Z,97954.00
2023-05-09T14:55:23.770Z,97952.03
2023-05-09T14:57:50.192Z,97940.75
2023-05-09T15:00:21.791Z,97931.66
2023-05-09T15:02:49.388Z,97940.09
2023-05-09T15:05:16.903Z,97935.81
2023-05-09T15:07:43.431Z,97928.47
2023-05-09T15:10:10.401Z,97922.44
2023-05-09T15:12:36.932Z,97939.16
2023-05-09T15:15:14.047Z,97940.59
2023-05-09T15:17:40.970Z,97928.69
2023-05-09T15:20:08.073Z,97935.44
2023-05-09T15:22:34.789Z,97935.25
2023-05-09T15:25:02.961Z,97933.00
2023-05-09T15:27:31.446Z,97927.22
2023-05-09T15:29:58.119Z,97922.84
2023-05-09T15:32:24.704Z,97921.31
2023-05-09T15:37:27.593Z,97920.31
2023-05-09T15:39:54.036Z,97914.72
2023-05-09T15:42:20.507Z,97907.97
2023-05-09T15:44:49.708Z,97913.56
2023-05-09T15:47:16.415Z,97905.28
2023-05-09T15:49:43.002Z,97903.88
2023-05-09T15:52:10.723Z,97897.03
2023-05-09T15:54:37.907Z,97894.97
2023-05-09T15:57:05.065Z,97893.34
2023-05-09T15:59:31.544Z,97894.00
2023-05-09T16:01:58.147Z,97893.66
2023-05-09T16:04:24.713Z,97893.25
2023-05-09T16:06:51.729Z,97877.53
2023-05-09T16:09:20.828Z,97880.66
2023-05-09T16:11:47.482Z,97883.34
2023-05-09T16:14:13.995Z,97882.69
2023-05-09T16:16:40.701Z,97890.34
2023-05-09T16:19:07.217Z,97891.38
2023-05-09T16:21:33.700Z,97891.75
2023-05-09T16:24:05.038Z,97888.63
2023-05-09T16:26:31.683Z,97886.34
2023-05-09T16:28:58.222Z,97877.66
2023-05-09T16:31:26.694Z,97875.81
2023-05-09T16:33:54.337Z,97870.44
2023-05-09T16:36:22.036Z,97872.28
2023-05-09T16:38:48.678Z,97867.09
2023-05-09T16:41:15.946Z,97851.81
2023-05-09T16:43:42.770Z,97852.84
2023-05-09T16:46:11.507Z,97840.84
2023-05-09T16:48:38.011Z,97835.06
2023-05-09T16:51:04.783Z,97830.53
2023-05-09T16:53:31.287Z,97821.19
2023-05-09T16:55:58.446Z,97820.97
2023-05-09T16:58:25.295Z,97818.28
2023-05-09T17:00:55.343Z,97816.41
2023-05-09T17:03:22.021Z,97810.44
2023-05-09T17:05:48.416Z,97801.75
2023-05-09T17:08:15.225Z,97803.41
2023-05-09T17:10:42.296Z,97798.84
2023-05-09T17:13:09.029Z,97801.28
2023-05-09T17:15:36.910Z,97806.22
2023-05-09T17:18:04.682Z,97816.75
2023-05-09T17:20:31.740Z,97822.34
2023-05-09T17:22:58.154Z,97827.34
2023-05-09T17:25:24.607Z,97833.25
2023-05-09T17:27:51.180Z,97824.44
2023-05-09T17:30:19.407Z,97830.66
2023-05-09T17:32:48.009Z,97814.97
2023-05-09T17:35:15.102Z,97807.50
2023-05-09T17:37:41.545Z,97804.22
2023-05-09T17:40:08.734Z,97794.66
2023-05-09T17:42:35.228Z,97801.28
2023-05-09T17:45:01.816Z,97798.09
2023-05-09T17:47:28.839Z,97802.09
2023-05-09T17:49:55.431Z,97802.88
2023-05-09T17:52:22.059Z,97800.41
2023-05-09T17:54:48.802Z,97795.84
2023-05-09T17:57:15.239Z,97793.00
2023-05-09T17:59:41.684Z,97795.72
2023-05-09T18:02:08.289Z,97795.94
2023-05-09T18:04:34.765Z,97793.88
2023-05-09T18:07:01.533Z,97784.41
2023-05-09T18:09:28.148Z,97788.38
2023-05-09T18:11:54.626Z,97792.72
2023-05-09T18:14:22.374Z,97790.47
2023-05-09T18:16:48.943Z,97784.22
2023-05-09T18:19:15.489Z,97789.38
2023-05-09T18:21:41.925Z,97789.78
2023-05-09T18:24:09.233Z,97793.72
2023-05-09T18:26:35.929Z,97793.53
2023-05-09T18:29:02.532Z,97794.56
2023-05-09T18:31:31.151Z,97803.03
2023-05-09T18:33:57.650Z,97804.88
2023-05-09T18:36:24.085Z,97817.69
2023-05-09T18:38:50.977Z,97820.81
2023-05-09T18:41:17.576Z,97831.69
2023-05-09T18:43:46.820Z,97861.66
2023-05-09T18:46:17.663Z,97856.47
2023-05-09T18:48:45.641Z,97855.97
2023-05-09T18:51:12.190Z,97859.16
2023-05-09T18:53:38.742Z,97847.34
2023-05-09T18:56:05.379Z,97843.84
2023-05-09T18:58:32.405Z,97839.94
2023-05-09T19:00:59.161Z,97834.34
2023-05-09T19:03:27.141Z,97822.81
2023-05-09T19:05:53.927Z,97829.41
2023-05-09T19:08:20.626Z,97821.66
2023-05-09T19:10:47.128Z,97812.78
2023-05-09T19:13:16.064Z,97822.59
2023-05-09T19:15:43.066Z,97826.72
2023-05-09T19:18:09.614Z,97831.25
2023-05-09T19:20:36.131Z,97828.63
2023-05-09T19:23:02.721Z,97819.22
2023-05-09T19:25:33.731Z,97810.34
2023-05-09T19:28:01.522Z,97807.50
2023-05-09T19:30:27.958Z,97806.66
2023-05-09T19:32:54.592Z,97807.88
2023-05-09T19:35:21.195Z,97806.25
2023-05-09T19:37:47.710Z,97802.88
2023-05-09T19:40:14.883Z,97810.38
2023-05-09T19:42:41.919Z,97806.56
2023-05-09T19:45:08.916Z,97797.47
2023-05-09T19:47:35.569Z,97804.91
2023-05-09T19:50:02.179Z,97799.50
2023-05-09T19:52:29.787Z,97806.97
2023-05-09T19:54:56.226Z,97806.97
2023-05-09T19:57:22.819Z,97805.63
2023-05-09T19:59:49.244Z,97806.28
2023-05-09T20:02:15.724Z,97801.09
2023-05-09T20:04:46.545Z,97807.34
2023-05-09T20:07:13.099Z,97802.69
2023-05-09T20:09:39.511Z,97805.34
2023-05-09T20:12:06.424Z,97800.78
2023-05-09T20:14:32.949Z,97795.81
2023-05-09T20:16:59.447Z,97793.66
2023-05-09T20:19:25.983Z,97793.41
2023-05-09T20:21:52.528Z,97796.72
2023-05-09T20:24:19.766Z,97795.78
2023-05-09T20:26:46.357Z,97803.97
2023-05-09T20:29:12.730Z,97808.34
2023-05-09T20:31:41.818Z,97804.59
2023-05-09T20:34:12.288Z,97793.16
2023-05-09T20:36:38.807Z,97792.53
2023-05-09T20:39:05.293Z,97781.81
2023-05-09T20:41:32.005Z,97788.03
2023-05-09T20:44:03.592Z,97787.16
2023-05-09T20:46:30.906Z,97780.59
2023-05-09T20:48:57.278Z,97778.75
2023-05-09T20:51:23.935Z,97774.22
2023-05-09T20:53:50.364Z,97778.16
2023-05-09T20:56:16.942Z,97780.84
2023-05-09T20:58:43.350Z,97776.97
2023-05-09T21:01:09.937Z,97772.47
2023-05-09T21:03:36.451Z,97771.84
2023-05-09T21:06:03.053Z,97772.72
2023-05-09T21:08:29.564Z,97758.91
2023-05-09T21:10:56.090Z,97762.97
2023-05-09T21:13:22.837Z,97756.63
2023-05-09T21:15:50.819Z,97757.88
2023-05-09T21:18:17.492Z,97761.22
2023-05-09T21:20:45.087Z,97760.97
2023-05-09T21:23:11.816Z,97756.25
2023-05-09T21:25:38.241Z,97755.22
2023-05-09T21:28:04.827Z,97749.56
2023-05-09T21:30:31.613Z,97743.59
2023-05-09T21:32:58.080Z,97743.97
2023-05-09T21:35:24.518Z,97744.00
2023-05-09T21:37:52.543Z,97746.00
2023-05-09T21:40:19.126Z,97742.31
2023-05-09T21:42:46.836Z,97747.06
2023-05-09T21:45:13.614Z,97739.16
2023-05-09T21:47:40.545Z,97738.97
2023-05-09T21:50:10.587Z,97735.03
2023-05-09T21:52:37.066Z,97741.75
2023-05-09T21:55:03.758Z,97739.00
2023-05-09T21:57:30.310Z,97737.47
2023-05-09T22:00:00.989Z,97739.84
2023-05-09T22:02:31.215Z,97728.34
2023-05-09T22:04:57.921Z,97733.13
2023-05-09T22:07:24.414Z,97733.50
2023-05-09T22:09:50.920Z,97729.75
2023-05-09T22:12:17.326Z,97724.91
2023-05-09T22:14:55.259Z,97728.72
2023-05-09T22:17:23.045Z,97724.00
2023-05-09T22:19:49.541Z,97729.53
2023-05-09T22:22:16.037Z,97724.78
2023-05-09T22:24:42.720Z,97723.09
2023-05-09T22:27:09.835Z,97723.63
2023-05-09T22:29:36.417Z,97727.69
2023-05-09T22:32:03.630Z,97715.31
2023-05-09T22:34:30.676Z,97721.56
2023-05-09T22:36:59.955Z,97716.16
2023-05-09T22:39:26.814Z,97715.81
2023-05-09T22:41:53.208Z,97713.53
2023-05-09T22:44:19.727Z,97720.94
2023-05-09T22:46:46.271Z,97709.19
2023-05-09T22:49:12.876Z,97715.88
2023-05-09T22:51:39.709Z,97711.97
2023-05-09T22:54:06.253Z,97715.94
2023-05-09T22:56:33.258Z,97713.03
2023-05-09T22:58:59.750Z,97714.06
2023-05-09T23:01:27.402Z,97711.13
2023-05-09T23:03:53.932Z,97712.75
2023-05-09T23:06:20.311Z,97719.97
2023-05-09T23:08:46.838Z,97715.63
2023-05-09T23:11:13.308Z,97721.03
2023-05-09T23:13:39.782Z,97731.69
2023-05-09T23:16:06.702Z,97732.81
2023-05-09T23:18:33.124Z,97731.44
2023-05-09T23:20:59.522Z,97740.47
2023-05-09T23:23:26.119Z,97731.78
2023-05-09T23:25:52.593Z,97734.66
2023-05-09T23:28:20.349Z,97741.03
2023-05-09T23:30:46.910Z,97740.78
2023-05-09T23:33:13.361Z,97731.91
2023-05-09T23:35:39.772Z,97740.34
2023-05-09T23:38:06.305Z,97734.72
2023-05-09T23:40:32.936Z,97733.63
2023-05-09T23:42:59.503Z,97730.84
2023-05-09T23:45:26.089Z,97726.72
2023-05-09T23:47:52.803Z,97726.66
2023-05-09T23:50:19.466Z,97729.88
2023-05-09T23:52:49.177Z,97728.75
2023-05-09T23:55:17.704Z,97730.16
2023-05-09T23:57:44.424Z,97726.00
